createdAt,value
2016-09-15T00:00:15.768Z,1016.32
2016-09-15T00:01:15.799Z,1016.3
2016-09-15T00:02:15.816Z,1016.35
2016-09-15T00:03:15.839Z,1016.33
2016-09-15T00:04:15.867Z,1016.31
2016-09-15T00:05:15.889Z,1016.32
2016-09-15T00:06:15.914Z,1016.34
2016-09-15T00:07:15.944Z,1016.33
2016-09-15T00:08:15.968Z,1016.31
2016-09-15T00:09:15.988Z,1016.3
2016-09-15T00:10:16.010Z,1016.29
2016-09-15T00:11:16.030Z,1016.34
2016-09-15T00:12:16.062Z,1016.32
2016-09-15T00:13:16.083Z,1016.32
2016-09-15T00:14:16.109Z,1016.34
2016-09-15T00:15:16.131Z,1016.31
2016-09-15T00:16:16.160Z,1016.32
2016-09-15T00:17:16.180Z,1016.33
2016-09-15T00:18:16.204Z,1016.32
2016-09-15T00:19:16.229Z,1016.33
2016-09-15T00:20:16.249Z,1016.34
2016-09-15T00:21:16.279Z,1016.36
2016-09-15T00:22:16.302Z,1016.36
2016-09-15T00:23:16.431Z,1016.35
2016-09-15T00:24:16.348Z,1016.35
2016-09-15T00:25:16.373Z,1016.35
2016-09-15T00:26:16.404Z,1016.36
2016-09-15T00:27:16.426Z,1016.35
2016-09-15T00:28:16.446Z,1016.34
2016-09-15T00:29:16.472Z,1016.34
2016-09-15T00:30:16.496Z,1016.32
2016-09-15T00:31:16.530Z,1016.3
2016-09-15T00:32:16.542Z,1016.32
2016-09-15T00:33:16.572Z,1016.33
2016-09-15T00:34:16.592Z,1016.29
2016-09-15T00:35:16.609Z,1016.32
2016-09-15T00:36:16.637Z,1016.33
2016-09-15T00:37:16.665Z,1016.31
2016-09-15T00:38:16.691Z,1016.28
2016-09-15T00:39:16.759Z,1016.29
2016-09-15T00:40:16.730Z,1016.27
2016-09-15T00:41:16.755Z,1016.26
2016-09-15T00:42:16.784Z,1016.29
2016-09-15T00:43:16.804Z,1016.3
2016-09-15T00:44:16.832Z,1016.29
2016-09-15T00:45:16.854Z,1016.27
2016-09-15T00:46:16.879Z,1016.29
2016-09-15T00:47:16.905Z,1016.29
2016-09-15T00:48:16.928Z,1016.28
2016-09-15T00:49:16.952Z,1016.28
2016-09-15T00:50:16.971Z,1016.27
2016-09-15T00:51:17.000Z,1016.27
2016-09-15T00:52:17.022Z,1016.24
2016-09-15T00:53:17.050Z,1016.27
2016-09-15T00:54:17.082Z,1016.26
2016-09-15T00:55:17.091Z,1016.26
2016-09-15T00:56:17.122Z,1016.28
2016-09-15T00:57:17.137Z,1016.27
2016-09-15T00:58:17.161Z,1016.26
2016-09-15T00:59:17.191Z,1016.28
2016-09-15T01:00:17.213Z,1016.26
2016-09-15T01:01:17.236Z,1016.22
2016-09-15T01:02:17.258Z,1016.22
2016-09-15T01:03:17.282Z,1016.27
2016-09-15T01:04:17.310Z,1016.29
2016-09-15T01:05:17.335Z,1016.31
2016-09-15T01:06:17.354Z,1016.29
2016-09-15T01:07:17.384Z,1016.28
2016-09-15T01:08:17.404Z,1016.27
2016-09-15T01:09:17.451Z,1016.27
2016-09-15T01:10:17.450Z,1016.25
2016-09-15T01:11:17.478Z,1016.24
2016-09-15T01:12:17.506Z,1016.22
2016-09-15T01:13:17.522Z,1016.23
2016-09-15T01:14:17.548Z,1016.2
2016-09-15T01:15:17.571Z,1016.19
2016-09-15T01:16:17.588Z,1016.15
2016-09-15T01:17:17.614Z,1016.14
2016-09-15T01:18:17.644Z,1016.12
2016-09-15T01:19:17.675Z,1016.14
2016-09-15T01:20:17.683Z,1016.11
2016-09-15T01:21:17.715Z,1016.07
2016-09-15T01:22:17.733Z,1016.04
2016-09-15T01:23:17.761Z,1016.01
2016-09-15T01:24:17.780Z,1016
2016-09-15T01:25:17.806Z,1015.99
2016-09-15T01:26:17.835Z,1016.02
2016-09-15T01:27:17.854Z,1015.97
2016-09-15T01:28:17.885Z,1015.99
2016-09-15T01:29:17.909Z,1015.99
2016-09-15T01:30:17.922Z,1016
2016-09-15T01:31:17.956Z,1015.96
2016-09-15T01:32:17.974Z,1015.96
2016-09-15T01:33:18.050Z,1016.01
2016-09-15T01:34:18.013Z,1015.96
2016-09-15T01:35:18.039Z,1015.97
2016-09-15T01:36:18.064Z,1015.97
2016-09-15T01:37:18.086Z,1015.98
2016-09-15T01:38:18.113Z,1015.94
2016-09-15T01:39:18.185Z,1015.93
2016-09-15T01:40:18.154Z,1015.92
2016-09-15T01:41:18.185Z,1015.91
2016-09-15T01:42:18.215Z,1015.97
2016-09-15T01:43:18.225Z,1015.95
2016-09-15T01:44:18.252Z,1015.91
2016-09-15T01:45:18.272Z,1015.92
2016-09-15T01:46:18.349Z,1015.91
2016-09-15T01:47:18.326Z,1015.93
2016-09-15T01:48:18.344Z,1015.95
2016-09-15T01:49:18.367Z,1015.96
2016-09-15T01:50:18.387Z,1015.96
2016-09-15T01:51:18.414Z,1015.98
2016-09-15T01:52:18.437Z,1015.95
2016-09-15T01:53:18.458Z,1015.96
2016-09-15T01:54:18.484Z,1015.97
2016-09-15T01:55:18.573Z,1015.98
2016-09-15T01:56:18.530Z,1015.98
2016-09-15T01:57:18.555Z,1015.98
2016-09-15T01:58:18.574Z,1015.94
2016-09-15T01:59:18.605Z,1015.94
2016-09-15T02:00:18.621Z,1015.96
2016-09-15T02:01:18.695Z,1015.96
2016-09-15T02:02:18.669Z,1015.97
2016-09-15T02:03:18.694Z,1015.97
2016-09-15T02:04:18.714Z,1015.94
2016-09-15T02:05:18.739Z,1015.97
2016-09-15T02:06:18.765Z,1016
2016-09-15T02:07:18.786Z,1015.96
2016-09-15T02:08:18.813Z,1015.95
2016-09-15T02:09:18.834Z,1015.96
2016-09-15T02:10:18.849Z,1015.91
2016-09-15T02:11:18.875Z,1015.97
2016-09-15T02:12:18.902Z,1015.87
2016-09-15T02:13:18.924Z,1015.91
2016-09-15T02:14:18.942Z,1015.9
2016-09-15T02:15:18.969Z,1015.92
2016-09-15T02:16:18.994Z,1015.91
2016-09-15T02:17:19.014Z,1015.9
2016-09-15T02:18:19.043Z,1015.92
2016-09-15T02:19:19.064Z,1015.92
2016-09-15T02:20:19.084Z,1015.96
2016-09-15T02:21:19.109Z,1015.94
2016-09-15T02:22:19.134Z,1015.95
2016-09-15T02:23:19.159Z,1015.99
2016-09-15T02:24:19.183Z,1016
2016-09-15T02:25:19.206Z,1015.99
2016-09-15T02:26:19.230Z,1016.02
2016-09-15T02:27:19.253Z,1016.01
2016-09-15T02:28:19.273Z,1016.03
2016-09-15T02:29:19.309Z,1016.04
2016-09-15T02:30:19.313Z,1016.04
2016-09-15T02:31:19.336Z,1016.03
2016-09-15T02:32:19.364Z,1016.06
2016-09-15T02:33:19.385Z,1016.03
2016-09-15T02:34:19.407Z,1016.01
2016-09-15T02:35:19.435Z,1016.04
2016-09-15T02:36:19.454Z,1016.01
2016-09-15T02:37:19.478Z,1015.96
2016-09-15T02:38:19.498Z,1015.97
2016-09-15T02:39:19.520Z,1015.99
2016-09-15T02:40:19.545Z,1015.96
2016-09-15T02:41:19.574Z,1015.92
2016-09-15T02:42:19.594Z,1015.95
2016-09-15T02:43:19.626Z,1015.97
2016-09-15T02:44:19.646Z,1015.94
2016-09-15T02:45:19.663Z,1015.93
2016-09-15T02:46:19.684Z,1015.93
2016-09-15T02:47:19.712Z,1015.91
2016-09-15T02:48:19.741Z,1015.91
2016-09-15T02:49:19.753Z,1015.91
2016-09-15T02:50:19.776Z,1015.88
2016-09-15T02:51:19.806Z,1015.87
2016-09-15T02:52:19.817Z,1015.89
2016-09-15T02:53:19.846Z,1015.85
2016-09-15T02:54:19.879Z,1015.9
2016-09-15T02:55:19.888Z,1015.88
2016-09-15T02:56:19.914Z,1015.85
2016-09-15T02:57:19.938Z,1015.86
2016-09-15T02:58:19.962Z,1015.91
2016-09-15T02:59:19.983Z,1015.91
2016-09-15T03:00:20.006Z,1015.88
2016-09-15T03:01:20.032Z,1015.86
2016-09-15T03:02:20.049Z,1015.86
2016-09-15T03:03:20.075Z,1015.85
2016-09-15T03:04:20.094Z,1015.87
2016-09-15T03:05:20.127Z,1015.87
2016-09-15T03:06:20.145Z,1015.89
2016-09-15T03:07:20.167Z,1015.86
2016-09-15T03:08:20.187Z,1015.89
2016-09-15T03:09:20.213Z,1015.87
2016-09-15T03:10:20.235Z,1015.89
2016-09-15T03:11:20.255Z,1015.84
2016-09-15T03:12:20.277Z,1015.86
2016-09-15T03:13:20.303Z,1015.87
2016-09-15T03:14:20.328Z,1015.86
2016-09-15T03:15:20.354Z,1015.88
2016-09-15T03:16:20.376Z,1015.88
2016-09-15T03:17:20.394Z,1015.9
2016-09-15T03:18:20.460Z,1015.89
2016-09-15T03:19:20.434Z,1015.94
2016-09-15T03:20:20.465Z,1015.87
2016-09-15T03:21:20.489Z,1015.85
2016-09-15T03:22:20.506Z,1015.89
2016-09-15T03:23:20.527Z,1015.84
2016-09-15T03:24:20.552Z,1015.83
2016-09-15T03:25:20.568Z,1015.83
2016-09-15T03:26:20.602Z,1015.81
2016-09-15T03:27:20.624Z,1015.84
2016-09-15T03:28:20.647Z,1015.83
2016-09-15T03:29:20.660Z,1015.82
2016-09-15T03:30:20.689Z,1015.77
2016-09-15T03:31:20.714Z,1015.8
2016-09-15T03:32:20.731Z,1015.77
2016-09-15T03:33:20.756Z,1015.79
2016-09-15T03:34:20.774Z,1015.77
2016-09-15T03:35:20.794Z,1015.75
2016-09-15T03:36:20.822Z,1015.75
2016-09-15T03:37:20.847Z,1015.77
2016-09-15T03:38:20.864Z,1015.87
2016-09-15T03:39:20.887Z,1015.82
2016-09-15T03:40:20.958Z,1015.82
2016-09-15T03:41:20.941Z,1015.82
2016-09-15T03:42:20.954Z,1015.82
2016-09-15T03:43:20.978Z,1015.81
2016-09-15T03:44:20.993Z,1015.79
2016-09-15T03:45:21.023Z,1015.79
2016-09-15T03:46:21.044Z,1015.77
2016-09-15T03:47:21.064Z,1015.77
2016-09-15T03:48:21.088Z,1015.77
2016-09-15T03:49:21.111Z,1015.75
2016-09-15T03:50:21.132Z,1015.76
2016-09-15T03:51:21.155Z,1015.8
2016-09-15T03:52:21.177Z,1015.73
2016-09-15T03:53:21.203Z,1015.74
2016-09-15T03:54:21.220Z,1015.73
2016-09-15T03:55:21.243Z,1015.72
2016-09-15T03:56:21.265Z,1015.71
2016-09-15T03:57:21.288Z,1015.73
2016-09-15T03:58:21.316Z,1015.72
2016-09-15T03:59:21.331Z,1015.71
2016-09-15T04:00:21.364Z,1015.73
2016-09-15T04:01:21.378Z,1015.73
2016-09-15T04:02:21.405Z,1015.71
2016-09-15T04:03:21.419Z,1015.69
2016-09-15T04:04:21.447Z,1015.72
2016-09-15T04:05:21.460Z,1015.72
2016-09-15T04:06:21.494Z,1015.72
2016-09-15T04:07:21.506Z,1015.71
2016-09-15T04:08:21.535Z,1015.73
2016-09-15T04:09:21.557Z,1015.76
2016-09-15T04:10:21.577Z,1015.79
2016-09-15T04:11:21.599Z,1015.74
2016-09-15T04:12:21.621Z,1015.77
2016-09-15T04:13:21.642Z,1015.72
2016-09-15T04:14:21.672Z,1015.75
2016-09-15T04:15:21.687Z,1015.71
2016-09-15T04:16:21.711Z,1015.69
2016-09-15T04:17:21.734Z,1015.63
2016-09-15T04:18:21.761Z,1015.66
2016-09-15T04:19:21.772Z,1015.63
2016-09-15T04:20:21.814Z,1015.62
2016-09-15T04:21:21.821Z,1015.61
2016-09-15T04:22:21.840Z,1015.62
2016-09-15T04:23:21.882Z,1015.63
2016-09-15T04:24:21.892Z,1015.61
2016-09-15T04:25:21.913Z,1015.57
2016-09-15T04:26:21.970Z,1015.61
2016-09-15T04:27:21.952Z,1015.61
2016-09-15T04:28:21.992Z,1015.63
2016-09-15T04:29:22.003Z,1015.61
2016-09-15T04:30:22.021Z,1015.61
2016-09-15T04:31:22.041Z,1015.59
2016-09-15T04:32:22.068Z,1015.64
2016-09-15T04:33:22.089Z,1015.68
2016-09-15T04:34:22.115Z,1015.63
2016-09-15T04:35:22.129Z,1015.63
2016-09-15T04:36:22.151Z,1015.65
2016-09-15T04:37:22.177Z,1015.62
2016-09-15T04:38:22.202Z,1015.62
2016-09-15T04:39:22.299Z,1015.66
2016-09-15T04:40:22.243Z,1015.65
2016-09-15T04:41:22.311Z,1015.66
2016-09-15T04:42:22.288Z,1015.65
2016-09-15T04:43:22.308Z,1015.64
2016-09-15T04:44:22.332Z,1015.65
2016-09-15T04:45:22.357Z,1015.63
2016-09-15T04:46:22.380Z,1015.7
2016-09-15T04:47:22.399Z,1015.66
2016-09-15T04:48:22.419Z,1015.73
2016-09-15T04:49:22.439Z,1015.71
2016-09-15T04:50:22.471Z,1015.69
2016-09-15T04:51:22.490Z,1015.7
2016-09-15T04:52:22.510Z,1015.74
2016-09-15T04:53:22.533Z,1015.67
2016-09-15T04:54:22.556Z,1015.72
2016-09-15T04:55:22.581Z,1015.72
2016-09-15T04:56:22.601Z,1015.72
2016-09-15T04:57:22.635Z,1015.72
2016-09-15T04:58:22.638Z,1015.69
2016-09-15T04:59:22.663Z,1015.7
2016-09-15T05:00:22.686Z,1015.72
2016-09-15T05:01:22.712Z,1015.74
2016-09-15T05:02:22.731Z,1015.72
2016-09-15T05:03:22.750Z,1015.74
2016-09-15T05:04:22.781Z,1015.71
2016-09-15T05:05:22.801Z,1015.74
2016-09-15T05:06:22.822Z,1015.71
2016-09-15T05:07:22.841Z,1015.73
2016-09-15T05:08:22.871Z,1015.72
2016-09-15T05:09:22.891Z,1015.76
2016-09-15T05:10:22.912Z,1015.72
2016-09-15T05:11:22.934Z,1015.75
2016-09-15T05:12:22.962Z,1015.75
2016-09-15T05:13:22.978Z,1015.77
2016-09-15T05:14:23.001Z,1015.76
2016-09-15T05:15:23.018Z,1015.74
2016-09-15T05:16:23.041Z,1015.75
2016-09-15T05:17:23.060Z,1015.76
2016-09-15T05:18:23.084Z,1015.76
2016-09-15T05:19:23.106Z,1015.75
2016-09-15T05:20:23.133Z,1015.76
2016-09-15T05:21:23.172Z,1015.77
2016-09-15T05:22:23.180Z,1015.75
2016-09-15T05:23:23.200Z,1015.77
2016-09-15T05:24:23.221Z,1015.76
2016-09-15T05:25:23.239Z,1015.81
2016-09-15T05:26:23.260Z,1015.82
2016-09-15T05:27:23.291Z,1015.8
2016-09-15T05:28:23.310Z,1015.84
2016-09-15T05:29:23.332Z,1015.87
2016-09-15T05:30:23.352Z,1015.88
2016-09-15T05:31:23.381Z,1015.9
2016-09-15T05:32:23.396Z,1015.91
2016-09-15T05:33:23.423Z,1015.9
2016-09-15T05:34:23.441Z,1015.91
2016-09-15T05:35:23.465Z,1015.89
2016-09-15T05:36:23.492Z,1015.88
2016-09-15T05:37:23.512Z,1015.9
2016-09-15T05:38:23.532Z,1015.89
2016-09-15T05:39:23.609Z,1015.89
2016-09-15T05:40:23.575Z,1015.94
2016-09-15T05:41:23.601Z,1015.94
2016-09-15T05:42:23.628Z,1015.96
2016-09-15T05:43:23.645Z,1015.97
2016-09-15T05:44:23.669Z,1015.97
2016-09-15T05:45:23.691Z,1016.04
2016-09-15T05:46:23.710Z,1015.97
2016-09-15T05:47:23.738Z,1016.04
2016-09-15T05:48:23.765Z,1016
2016-09-15T05:49:23.784Z,1016.03
2016-09-15T05:50:23.811Z,1016.02
2016-09-15T05:51:23.832Z,1016.05
2016-09-15T05:52:23.850Z,1016.05
2016-09-15T05:53:23.872Z,1016.01
2016-09-15T05:54:23.891Z,1015.96
2016-09-15T05:55:23.917Z,1015.96
2016-09-15T05:56:23.946Z,1015.97
2016-09-15T05:57:23.973Z,1015.99
2016-09-15T05:58:23.987Z,1015.98
2016-09-15T05:59:24.008Z,1015.99
2016-09-15T06:00:24.041Z,1015.99
2016-09-15T06:01:24.061Z,1016
2016-09-15T06:02:24.079Z,1016.04
2016-09-15T06:03:24.104Z,1016.05
2016-09-15T06:04:24.131Z,1016.04
2016-09-15T06:05:24.153Z,1016.03
2016-09-15T06:06:24.180Z,1016
2016-09-15T06:07:24.203Z,1016
2016-09-15T06:08:24.220Z,1016.1
2016-09-15T06:09:24.251Z,1016.02
2016-09-15T06:10:24.270Z,1016.04
2016-09-15T06:11:24.300Z,1016.03
2016-09-15T06:12:24.324Z,1016.07
2016-09-15T06:13:24.355Z,1016.07
2016-09-15T06:14:24.372Z,1016.06
2016-09-15T06:15:24.403Z,1016.05
2016-09-15T06:16:24.422Z,1016.1
2016-09-15T06:17:24.448Z,1016.08
2016-09-15T06:18:24.472Z,1016.09
2016-09-15T06:19:24.501Z,1016.09
2016-09-15T06:20:24.523Z,1016.15
2016-09-15T06:21:24.551Z,1016.14
2016-09-15T06:22:24.586Z,1016.13
2016-09-15T06:23:24.604Z,1016.11
2016-09-15T06:24:24.686Z,1016.13
2016-09-15T06:25:24.651Z,1016.17
2016-09-15T06:26:24.680Z,1016.11
2016-09-15T06:27:24.711Z,1016.11
2016-09-15T06:28:24.735Z,1016.17
2016-09-15T06:29:24.756Z,1016.19
2016-09-15T06:30:24.790Z,1016.19
2016-09-15T06:31:24.812Z,1016.16
2016-09-15T06:32:24.845Z,1016.17
2016-09-15T06:33:24.904Z,1016.19
2016-09-15T06:34:24.891Z,1016.23
2016-09-15T06:35:24.975Z,1016.18
2016-09-15T06:36:24.953Z,1016.14
2016-09-15T06:37:24.969Z,1016.16
2016-09-15T06:38:25.003Z,1016.17
2016-09-15T06:39:25.032Z,1016.12
2016-09-15T06:40:25.049Z,1016.14
2016-09-15T06:41:25.084Z,1016.08
2016-09-15T06:42:25.108Z,1016.15
2016-09-15T06:43:25.145Z,1016.15
2016-09-15T06:44:25.160Z,1016.14
2016-09-15T06:45:25.188Z,1016.18
2016-09-15T06:46:25.222Z,1016.16
2016-09-15T06:47:25.245Z,1016.15
2016-09-15T06:48:25.270Z,1016.09
2016-09-15T06:49:25.303Z,1016.12
2016-09-15T06:50:25.319Z,1016.18
2016-09-15T06:51:25.351Z,1016.15
2016-09-15T06:52:25.374Z,1016.17
2016-09-15T06:53:25.417Z,1016.13
2016-09-15T06:54:25.437Z,1016.22
2016-09-15T06:55:25.461Z,1016.16
2016-09-15T06:56:25.493Z,1016.2
2016-09-15T06:57:25.521Z,1016.16
2016-09-15T06:58:25.545Z,1016.19
2016-09-15T06:59:25.573Z,1016.12
2016-09-15T07:00:25.599Z,1016.24
2016-09-15T07:01:25.631Z,1016.14
2016-09-15T07:02:25.657Z,1016.14
2016-09-15T07:03:25.679Z,1016.12
2016-09-15T07:04:25.709Z,1016.13
2016-09-15T07:05:25.741Z,1016.13
2016-09-15T07:06:25.764Z,1016.17
2016-09-15T07:07:25.793Z,1016.07
2016-09-15T07:08:25.820Z,1016.12
2016-09-15T07:09:25.851Z,1016.07
2016-09-15T07:10:25.884Z,1016.07
2016-09-15T07:11:25.910Z,1016.1
2016-09-15T07:12:25.929Z,1016.13
2016-09-15T07:13:25.958Z,1016.09
2016-09-15T07:14:25.986Z,1016.13
2016-09-15T07:15:26.042Z,1016.08
2016-09-15T07:16:26.039Z,1016.14
2016-09-15T07:17:26.070Z,1016.16
2016-09-15T07:18:26.106Z,1016.19
2016-09-15T07:19:26.125Z,1016.16
2016-09-15T07:20:26.153Z,1016.12
2016-09-15T07:21:26.182Z,1016.17
2016-09-15T07:22:26.210Z,1016.11
2016-09-15T07:23:26.240Z,1016.12
2016-09-15T07:24:26.263Z,1016.15
2016-09-15T07:25:26.296Z,1016.11
2016-09-15T07:26:26.326Z,1016.16
2016-09-15T07:27:26.350Z,1016.17
2016-09-15T07:28:26.379Z,1016.15
2016-09-15T07:29:26.405Z,1016.1
2016-09-15T07:30:26.430Z,1016.16
2016-09-15T07:31:26.460Z,1016.11
2016-09-15T07:32:26.487Z,1016.13
2016-09-15T07:33:26.515Z,1016.09
2016-09-15T07:34:26.541Z,1016.08
2016-09-15T07:35:26.568Z,1016.02
2016-09-15T07:36:26.600Z,1016.04
2016-09-15T07:37:26.628Z,1016.03
2016-09-15T07:38:26.657Z,1016.01
2016-09-15T07:39:26.697Z,1016.01
2016-09-15T07:40:26.705Z,1015.99
2016-09-15T07:41:26.737Z,1015.97
2016-09-15T07:42:26.759Z,1015.93
2016-09-15T07:43:26.790Z,1015.97
2016-09-15T07:44:26.821Z,1016
2016-09-15T07:45:26.846Z,1016
2016-09-15T07:46:26.926Z,1016
2016-09-15T07:47:26.905Z,1015.99
2016-09-15T07:48:26.932Z,1015.99
2016-09-15T07:49:26.953Z,1015.97
2016-09-15T07:50:27.239Z,1016
2016-09-15T07:51:27.003Z,1016.01
2016-09-15T07:52:27.029Z,1015.98
2016-09-15T07:53:27.051Z,1016.01
2016-09-15T07:54:27.081Z,1015.94
2016-09-15T07:55:27.108Z,1015.98
2016-09-15T07:56:27.144Z,1016.01
2016-09-15T07:57:27.158Z,1016.06
2016-09-15T07:58:27.188Z,1016.08
2016-09-15T07:59:27.209Z,1016.03
2016-09-15T08:00:27.239Z,1016.07
2016-09-15T08:01:27.269Z,1016.02
2016-09-15T08:02:27.286Z,1016.07
2016-09-15T08:03:27.316Z,1016.01
2016-09-15T08:04:27.351Z,1016.06
2016-09-15T08:05:27.370Z,1016.06
2016-09-15T08:06:27.397Z,1015.99
2016-09-15T08:07:27.418Z,1016.1
2016-09-15T08:08:27.445Z,1016.08
2016-09-15T08:09:27.467Z,1016.02
2016-09-15T08:10:27.498Z,1016.05
2016-09-15T08:11:27.530Z,1016.01
2016-09-15T08:12:27.551Z,1015.98
2016-09-15T08:13:27.576Z,1015.99
2016-09-15T08:14:27.605Z,1016.01
2016-09-15T08:15:27.640Z,1016
2016-09-15T08:16:27.661Z,1015.99
2016-09-15T08:17:27.681Z,1016.04
2016-09-15T08:18:27.707Z,1016
2016-09-15T08:19:27.730Z,1015.96
2016-09-15T08:20:27.760Z,1016.01
2016-09-15T08:21:27.786Z,1016
2016-09-15T08:22:27.819Z,1016
2016-09-15T08:23:27.835Z,1015.95
2016-09-15T08:24:27.860Z,1015.97
2016-09-15T08:25:27.891Z,1015.99
2016-09-15T08:26:27.913Z,1016.01
2016-09-15T08:27:27.943Z,1015.93
2016-09-15T08:28:27.965Z,1016.06
2016-09-15T08:29:27.993Z,1015.98
2016-09-15T08:30:28.019Z,1016.04
2016-09-15T08:31:28.040Z,1016.01
2016-09-15T08:32:28.066Z,1015.96
2016-09-15T08:33:28.097Z,1015.95
2016-09-15T08:34:28.127Z,1015.98
2016-09-15T08:35:28.142Z,1015.95
2016-09-15T08:36:28.172Z,1016.02
2016-09-15T08:37:28.200Z,1015.96
2016-09-15T08:38:28.226Z,1016.07
2016-09-15T08:39:28.309Z,1016.01
2016-09-15T08:40:28.278Z,1015.97
2016-09-15T08:41:28.304Z,1016
2016-09-15T08:42:28.331Z,1016
2016-09-15T08:43:28.363Z,1016
2016-09-15T08:44:28.379Z,1015.98
2016-09-15T08:45:28.410Z,1016
2016-09-15T08:46:28.432Z,1016.03
2016-09-15T08:47:28.460Z,1015.95
2016-09-15T08:48:28.484Z,1015.95
2016-09-15T08:49:28.513Z,1015.95
2016-09-15T08:50:28.546Z,1016
2016-09-15T08:51:28.572Z,1015.94
2016-09-15T08:52:28.643Z,1015.93
2016-09-15T08:53:28.618Z,1015.95
2016-09-15T08:54:28.647Z,1015.95
2016-09-15T08:55:28.672Z,1015.91
2016-09-15T08:56:28.699Z,1015.96
2016-09-15T08:57:28.731Z,1015.9
2016-09-15T08:58:28.754Z,1015.8
2016-09-15T08:59:28.778Z,1015.82
2016-09-15T09:00:28.809Z,1015.84
2016-09-15T09:01:28.832Z,1015.84
2016-09-15T09:02:28.856Z,1015.91
2016-09-15T09:03:28.893Z,1015.85
2016-09-15T09:04:28.915Z,1015.84
2016-09-15T09:05:28.942Z,1015.9
2016-09-15T09:06:28.964Z,1015.88
2016-09-15T09:07:28.995Z,1015.86
2016-09-15T09:08:29.015Z,1015.86
2016-09-15T09:09:29.047Z,1015.89
2016-09-15T09:10:29.070Z,1015.84
2016-09-15T09:11:29.096Z,1015.86
2016-09-15T09:12:29.125Z,1015.95
2016-09-15T09:13:29.153Z,1015.83
2016-09-15T09:14:29.182Z,1015.83
2016-09-15T09:15:29.207Z,1015.78
2016-09-15T09:16:29.232Z,1015.74
2016-09-15T09:17:29.256Z,1015.86
2016-09-15T09:18:29.292Z,1015.82
2016-09-15T09:19:29.315Z,1015.88
2016-09-15T09:20:29.343Z,1015.84
2016-09-15T09:21:29.362Z,1015.75
2016-09-15T09:22:29.394Z,1015.75
2016-09-15T09:23:29.422Z,1015.75
2016-09-15T09:24:29.453Z,1015.77
2016-09-15T09:25:29.475Z,1015.74
2016-09-15T09:26:29.499Z,1015.72
2016-09-15T09:27:29.533Z,1015.78
2016-09-15T09:28:29.553Z,1015.76
2016-09-15T09:29:29.585Z,1015.73
2016-09-15T09:30:29.865Z,1015.81
2016-09-15T09:31:29.790Z,1015.75
2016-09-15T09:32:29.810Z,1015.78
2016-09-15T09:33:29.840Z,1015.75
2016-09-15T09:34:29.825Z,1015.75
2016-09-15T09:35:29.843Z,1015.78
2016-09-15T09:36:29.822Z,1015.8
2016-09-15T09:37:29.854Z,1015.78
2016-09-15T09:38:29.832Z,1015.75
2016-09-15T09:39:29.914Z,1015.79
2016-09-15T09:40:29.877Z,1015.84
2016-09-15T09:41:29.903Z,1015.73
2016-09-15T09:42:29.934Z,1015.72
2016-09-15T09:43:29.965Z,1015.75
2016-09-15T09:44:29.993Z,1015.68
2016-09-15T09:45:30.015Z,1015.67
2016-09-15T09:46:30.038Z,1015.71
2016-09-15T09:47:30.076Z,1015.71
2016-09-15T09:48:30.104Z,1015.51
2016-09-15T09:49:30.127Z,1015.59
2016-09-15T09:50:30.155Z,1015.66
2016-09-15T09:51:30.189Z,1015.65
2016-09-15T09:52:30.207Z,1015.61
2016-09-15T09:53:30.232Z,1015.55
2016-09-15T09:54:30.261Z,1015.55
2016-09-15T09:55:30.296Z,1015.5
2016-09-15T09:56:30.328Z,1015.54
2016-09-15T09:57:30.346Z,1015.58
2016-09-15T09:58:30.367Z,1015.57
2016-09-15T09:59:30.402Z,1015.45
2016-09-15T10:00:30.425Z,1015.63
2016-09-15T10:01:30.455Z,1015.47
2016-09-15T10:02:30.492Z,1015.5
2016-09-15T10:03:30.506Z,1015.55
2016-09-15T10:04:30.534Z,1015.43
2016-09-15T10:05:30.563Z,1015.45
2016-09-15T10:06:30.590Z,1015.42
2016-09-15T10:07:30.622Z,1015.43
2016-09-15T10:08:30.647Z,1015.45
2016-09-15T10:09:30.675Z,1015.39
2016-09-15T10:10:30.697Z,1015.46
2016-09-15T10:11:30.721Z,1015.44
2016-09-15T10:12:30.766Z,1015.45
2016-09-15T10:13:30.781Z,1015.49
2016-09-15T10:14:30.806Z,1015.45
2016-09-15T10:15:30.836Z,1015.42
2016-09-15T10:16:30.863Z,1015.43
2016-09-15T10:17:30.896Z,1015.48
2016-09-15T10:18:30.922Z,1015.42
2016-09-15T10:19:30.947Z,1015.43
2016-09-15T10:20:30.973Z,1015.52
2016-09-15T10:21:31.007Z,1015.48
2016-09-15T10:22:31.036Z,1015.67
2016-09-15T10:23:31.054Z,1015.45
2016-09-15T10:24:31.085Z,1015.41
2016-09-15T10:25:31.112Z,1015.46
2016-09-15T10:26:31.139Z,1015.31
2016-09-15T10:27:31.164Z,1015.42
2016-09-15T10:28:31.196Z,1015.46
2016-09-15T10:29:31.218Z,1015.47
2016-09-15T10:30:31.253Z,1015.36
2016-09-15T10:31:31.276Z,1015.46
2016-09-15T10:32:31.302Z,1015.4
2016-09-15T10:33:31.333Z,1015.38
2016-09-15T10:34:31.354Z,1015.42
2016-09-15T10:35:31.382Z,1015.46
2016-09-15T10:36:31.413Z,1015.4
2016-09-15T10:37:31.435Z,1015.41
2016-09-15T10:38:31.470Z,1015.34
2016-09-15T10:39:31.492Z,1015.34
2016-09-15T10:40:31.538Z,1015.34
2016-09-15T10:41:31.556Z,1015.36
2016-09-15T10:42:31.582Z,1015.34
2016-09-15T10:43:31.602Z,1015.34
2016-09-15T10:44:31.634Z,1015.35
2016-09-15T10:45:31.664Z,1015.31
2016-09-15T10:46:31.684Z,1015.39
2016-09-15T10:47:31.716Z,1015.38
2016-09-15T10:48:31.744Z,1015.33
2016-09-15T10:49:31.769Z,1015.43
2016-09-15T10:50:31.801Z,1015.4
2016-09-15T10:51:31.825Z,1015.36
2016-09-15T10:52:31.856Z,1015.36
2016-09-15T10:53:31.882Z,1015.27
2016-09-15T10:54:31.904Z,1015.3
2016-09-15T10:55:31.936Z,1015.25
2016-09-15T10:56:31.960Z,1015.23
2016-09-15T10:57:31.991Z,1015.25
2016-09-15T10:58:32.012Z,1015.2
2016-09-15T10:59:32.054Z,1015.13
2016-09-15T11:00:32.069Z,1015.13
2016-09-15T11:01:32.097Z,1015.14
2016-09-15T11:02:32.136Z,1015.03
2016-09-15T11:03:32.155Z,1015.12
2016-09-15T11:04:32.188Z,1015.13
2016-09-15T11:05:32.226Z,1015.17
2016-09-15T11:06:32.241Z,1015.09
2016-09-15T11:07:32.273Z,1015.13
2016-09-15T11:08:32.308Z,1015.18
2016-09-15T11:09:32.425Z,1015.12
2016-09-15T11:10:32.347Z,1015.21
2016-09-15T11:11:32.377Z,1015.29
2016-09-15T11:12:32.403Z,1015.2
2016-09-15T11:13:32.433Z,1015.15
2016-09-15T11:14:32.468Z,1015.2
2016-09-15T11:15:32.484Z,1015.19
2016-09-15T11:16:32.513Z,1015.14
2016-09-15T11:17:32.543Z,1015.1
2016-09-15T11:18:32.575Z,1015.15
2016-09-15T11:19:32.601Z,1015.1
2016-09-15T11:20:32.632Z,1015.08
2016-09-15T11:21:32.653Z,1015.09
2016-09-15T11:22:32.684Z,1015.07
2016-09-15T11:23:32.711Z,1015.06
2016-09-15T11:24:32.743Z,1015.16
2016-09-15T11:25:32.775Z,1015.2
2016-09-15T11:26:32.792Z,1015.11
2016-09-15T11:27:32.824Z,1015.12
2016-09-15T11:28:32.848Z,1015.1
2016-09-15T11:29:32.973Z,1015.13
2016-09-15T11:30:32.902Z,1015.11
2016-09-15T11:31:32.979Z,1015.02
2016-09-15T11:32:32.956Z,1015.14
2016-09-15T11:33:32.983Z,1014.99
2016-09-15T11:34:33.016Z,1015.09
2016-09-15T11:35:33.044Z,1015.12
2016-09-15T11:36:33.069Z,1015.17
2016-09-15T11:37:33.103Z,1015.06
2016-09-15T11:38:33.137Z,1015.11
2016-09-15T11:39:33.156Z,1015.09
2016-09-15T11:40:33.181Z,1014.99
2016-09-15T11:41:33.485Z,1015.06
2016-09-15T11:42:33.239Z,1015.01
2016-09-15T11:43:33.272Z,1015.02
2016-09-15T11:44:33.298Z,1014.98
2016-09-15T11:45:33.322Z,1014.99
2016-09-15T11:46:33.353Z,1014.97
2016-09-15T11:47:33.381Z,1015
2016-09-15T11:48:33.402Z,1014.99
2016-09-15T11:49:33.436Z,1014.96
2016-09-15T11:50:33.457Z,1014.85
2016-09-15T11:51:33.485Z,1014.86
2016-09-15T11:52:33.524Z,1014.97
2016-09-15T11:53:33.542Z,1014.85
2016-09-15T11:54:33.570Z,1014.9
2016-09-15T11:55:33.599Z,1014.96
2016-09-15T11:56:33.633Z,1014.98
2016-09-15T11:57:33.655Z,1014.89
2016-09-15T11:58:33.684Z,1014.93
2016-09-15T11:59:33.712Z,1014.86
2016-09-15T12:00:33.741Z,1014.88
2016-09-15T12:01:33.773Z,1014.88
2016-09-15T12:02:33.800Z,1014.89
2016-09-15T12:03:33.821Z,1014.81
2016-09-15T12:04:33.853Z,1014.81
2016-09-15T12:05:33.874Z,1014.87
2016-09-15T12:06:33.912Z,1014.8
2016-09-15T12:07:33.933Z,1014.87
2016-09-15T12:08:33.958Z,1014.88
2016-09-15T12:09:33.990Z,1014.85